sensor_id;sensor_type;location;lat;lon;timestamp;P1;durP1;ratioP1;P2;durP2;ratioP2
5454;SDS011;2750;49.050;9.250;2023-08-30T00:03:07;55.03;;;37.07;;
5454;SDS011;2750;49.050;9.250;2023-08-30T00:08:09;57.27;;;38.20;;
5454;SDS011;2750;49.050;9.250;2023-08-30T00:13:11;57.30;;;37.50;;
5454;SDS011;2750;49.050;9.250;2023-08-30T00:18:14;57.77;;;38.60;;
5454;SDS011;2750;49.050;9.250;2023-08-30T00:23:15;59.67;;;40.87;;
5454;SDS011;2750;49.050;9.250;2023-08-30T00:28:17;66.80;;;41.47;;
5454;SDS011;2750;49.050;9.250;2023-08-30T00:33:20;57.83;;;39.63;;
5454;SDS011;2750;49.050;9.250;2023-08-30T00:38:22;57.70;;;36.93;;
5454;SDS011;2750;49.050;9.250;2023-08-30T00:43:23;65.23;;;38.70;;
5454;SDS011;2750;49.050;9.250;2023-08-30T00:48:26;58.70;;;40.87;;
5454;SDS011;2750;49.050;9.250;2023-08-30T00:53:28;67.57;;;42.13;;
5454;SDS011;2750;49.050;9.250;2023-08-30T00:58:30;75.30;;;41.57;;
5454;SDS011;2750;49.050;9.250;2023-08-30T01:03:33;69.60;;;40.43;;
5454;SDS011;2750;49.050;9.250;2023-08-30T01:08:35;68.03;;;40.80;;
5454;SDS011;2750;49.050;9.250;2023-08-30T01:13:38;71.47;;;39.90;;
5454;SDS011;2750;49.050;9.250;2023-08-30T01:18:44;69.40;;;41.80;;
5454;SDS011;2750;49.050;9.250;2023-08-30T01:23:48;68.83;;;42.27;;
5454;SDS011;2750;49.050;9.250;2023-08-30T01:28:56;67.03;;;39.37;;
5454;SDS011;2750;49.050;9.250;2023-08-30T01:34:01;60.80;;;40.57;;
5454;SDS011;2750;49.050;9.250;2023-08-30T01:39:04;62.13;;;40.43;;
5454;SDS011;2750;49.050;9.250;2023-08-30T01:44:08;64.27;;;39.90;;
5454;SDS011;2750;49.050;9.250;2023-08-30T01:49:11;72.70;;;42.03;;
5454;SDS011;2750;49.050;9.250;2023-08-30T01:54:14;82.67;;;44.07;;
5454;SDS011;2750;49.050;9.250;2023-08-30T01:59:20;75.30;;;42.90;;
5454;SDS011;2750;49.050;9.250;2023-08-30T02:04:21;74.00;;;41.83;;
5454;SDS011;2750;49.050;9.250;2023-08-30T02:09:24;71.10;;;41.10;;
5454;SDS011;2750;49.050;9.250;2023-08-30T02:14:31;67.83;;;38.77;;
5454;SDS011;2750;49.050;9.250;2023-08-30T02:19:34;71.83;;;39.50;;
5454;SDS011;2750;49.050;9.250;2023-08-30T02:24:35;69.33;;;39.17;;
5454;SDS011;2750;49.050;9.250;2023-08-30T02:29:38;72.57;;;40.43;;
5454;SDS011;2750;49.050;9.250;2023-08-30T02:34:40;81.00;;;41.43;;
5454;SDS011;2750;49.050;9.250;2023-08-30T02:39:42;73.33;;;40.77;;
5454;SDS011;2750;49.050;9.250;2023-08-30T02:44:45;77.33;;;42.90;;
5454;SDS011;2750;49.050;9.250;2023-08-30T02:49:46;78.00;;;44.07;;
5454;SDS011;2750;49.050;9.250;2023-08-30T02:54:48;79.33;;;41.77;;
5454;SDS011;2750;49.050;9.250;2023-08-30T02:59:51;79.90;;;42.77;;
5454;SDS011;2750;49.050;9.250;2023-08-30T03:04:52;76.50;;;43.13;;
5454;SDS011;2750;49.050;9.250;2023-08-30T03:09:54;73.50;;;40.87;;
5454;SDS011;2750;49.050;9.250;2023-08-30T03:14:57;81.17;;;42.63;;
5454;SDS011;2750;49.050;9.250;2023-08-30T03:19:59;76.63;;;40.83;;
5454;SDS011;2750;49.050;9.250;2023-08-30T03:25:03;82.17;;;43.53;;
5454;SDS011;2750;49.050;9.250;2023-08-30T03:30:07;80.23;;;42.57;;
5454;SDS011;2750;49.050;9.250;2023-08-30T03:35:09;80.23;;;42.40;;
5454;SDS011;2750;49.050;9.250;2023-08-30T03:40:11;76.17;;;42.83;;
5454;SDS011;2750;49.050;9.250;2023-08-30T03:45:14;76.33;;;41.43;;
5454;SDS011;2750;49.050;9.250;2023-08-30T03:50:16;75.43;;;42.20;;
5454;SDS011;2750;49.050;9.250;2023-08-30T03:55:18;71.70;;;40.70;;
5454;SDS011;2750;49.050;9.250;2023-08-30T04:00:20;76.30;;;42.80;;
5454;SDS011;2750;49.050;9.250;2023-08-30T04:05:22;70.70;;;40.17;;
5454;SDS011;2750;49.050;9.250;2023-08-30T04:10:23;70.33;;;38.70;;
5454;SDS011;2750;49.050;9.250;2023-08-30T04:15:26;71.00;;;39.80;;
5454;SDS011;2750;49.050;9.250;2023-08-30T04:20:28;68.67;;;40.50;;
5454;SDS011;2750;49.050;9.250;2023-08-30T04:25:30;66.93;;;39.37;;
5454;SDS011;2750;49.050;9.250;2023-08-30T04:30:35;67.27;;;39.00;;
5454;SDS011;2750;49.050;9.250;2023-08-30T04:35:37;72.03;;;40.70;;
5454;SDS011;2750;49.050;9.250;2023-08-30T04:40:39;65.20;;;38.77;;
5454;SDS011;2750;49.050;9.250;2023-08-30T04:45:41;64.80;;;38.90;;
5454;SDS011;2750;49.050;9.250;2023-08-30T04:50:43;70.10;;;41.83;;
5454;SDS011;2750;49.050;9.250;2023-08-30T04:55:45;64.97;;;40.73;;
5454;SDS011;2750;49.050;9.250;2023-08-30T05:00:47;61.37;;;38.60;;
5454;SDS011;2750;49.050;9.250;2023-08-30T05:05:49;69.63;;;39.13;;
5454;SDS011;2750;49.050;9.250;2023-08-30T05:10:53;62.70;;;39.53;;
5454;SDS011;2750;49.050;9.250;2023-08-30T05:15:56;58.67;;;38.30;;
5454;SDS011;2750;49.050;9.250;2023-08-30T05:20:57;58.23;;;38.13;;
5454;SDS011;2750;49.050;9.250;2023-08-30T05:25:59;63.73;;;38.70;;
5454;SDS011;2750;49.050;9.250;2023-08-30T05:31:02;53.77;;;36.87;;
5454;SDS011;2750;49.050;9.250;2023-08-30T05:36:03;56.60;;;37.50;;
5454;SDS011;2750;49.050;9.250;2023-08-30T05:41:05;50.07;;;36.03;;
5454;SDS011;2750;49.050;9.250;2023-08-30T05:46:08;45.53;;;34.37;;
5454;SDS011;2750;49.050;9.250;2023-08-30T05:51:14;45.00;;;35.13;;
5454;SDS011;2750;49.050;9.250;2023-08-30T05:56:16;45.03;;;33.53;;
5454;SDS011;2750;49.050;9.250;2023-08-30T06:01:19;40.43;;;32.43;;
5454;SDS011;2750;49.050;9.250;2023-08-30T06:06:21;39.13;;;31.03;;
5454;SDS011;2750;49.050;9.250;2023-08-30T06:11:22;36.33;;;29.47;;
5454;SDS011;2750;49.050;9.250;2023-08-30T06:16:25;34.67;;;29.73;;
5454;SDS011;2750;49.050;9.250;2023-08-30T06:21:27;34.40;;;28.43;;
5454;SDS011;2750;49.050;9.250;2023-08-30T06:26:28;36.47;;;28.77;;
5454;SDS011;2750;49.050;9.250;2023-08-30T06:31:31;30.47;;;27.17;;
5454;SDS011;2750;49.050;9.250;2023-08-30T06:36:33;28.57;;;25.53;;
5454;SDS011;2750;49.050;9.250;2023-08-30T06:41:34;28.47;;;24.93;;
5454;SDS011;2750;49.050;9.250;2023-08-30T06:46:37;28.03;;;25.03;;
5454;SDS011;2750;49.050;9.250;2023-08-30T06:51:39;25.97;;;23.33;;
5454;SDS011;2750;49.050;9.250;2023-08-30T06:56:45;24.90;;;22.37;;
5454;SDS011;2750;49.050;9.250;2023-08-30T07:01:58;22.17;;;20.07;;
5454;SDS011;2750;49.050;9.250;2023-08-30T07:07:00;20.27;;;18.37;;
5454;SDS011;2750;49.050;9.250;2023-08-30T07:12:01;18.23;;;16.63;;
5454;SDS011;2750;49.050;9.250;2023-08-30T07:17:04;14.70;;;13.30;;
5454;SDS011;2750;49.050;9.250;2023-08-30T07:22:07;13.87;;;12.50;;
5454;SDS011;2750;49.050;9.250;2023-08-30T07:27:08;13.40;;;12.20;;
5454;SDS011;2750;49.050;9.250;2023-08-30T07:32:12;13.23;;;11.93;;
5454;SDS011;2750;49.050;9.250;2023-08-30T07:37:17;12.57;;;11.47;;
5454;SDS011;2750;49.050;9.250;2023-08-30T07:42:20;11.70;;;10.80;;
5454;SDS011;2750;49.050;9.250;2023-08-30T07:47:23;12.30;;;11.27;;
5454;SDS011;2750;49.050;9.250;2023-08-30T07:52:24;11.17;;;10.17;;
5454;SDS011;2750;49.050;9.250;2023-08-30T07:57:26;11.47;;;10.37;;
5454;SDS011;2750;49.050;9.250;2023-08-30T08:02:29;12.40;;;11.10;;
5454;SDS011;2750;49.050;9.250;2023-08-30T08:07:31;11.90;;;10.80;;
5454;SDS011;2750;49.050;9.250;2023-08-30T08:12:32;11.63;;;10.63;;
5454;SDS011;2750;49.050;9.250;2023-08-30T08:17:36;8.80;;;8.10;;
5454;SDS011;2750;49.050;9.250;2023-08-30T08:22:37;9.87;;;8.97;;
5454;SDS011;2750;49.050;9.250;2023-08-30T08:27:39;9.43;;;8.63;;
5454;SDS011;2750;49.050;9.250;2023-08-30T08:32:42;9.38;;;8.68;;
5454;SDS011;2750;49.050;9.250;2023-08-30T08:37:43;9.13;;;8.32;;
5454;SDS011;2750;49.050;9.250;2023-08-30T08:42:45;8.18;;;7.47;;
5454;SDS011;2750;49.050;9.250;2023-08-30T08:47:52;8.73;;;7.80;;
5454;SDS011;2750;49.050;9.250;2023-08-30T08:52:53;8.23;;;7.57;;
5454;SDS011;2750;49.050;9.250;2023-08-30T08:57:56;7.38;;;6.78;;
5454;SDS011;2750;49.050;9.250;2023-08-30T09:03:00;8.05;;;7.45;;
5454;SDS011;2750;49.050;9.250;2023-08-30T09:08:04;7.15;;;6.55;;
5454;SDS011;2750;49.050;9.250;2023-08-30T09:13:07;7.22;;;6.55;;
5454;SDS011;2750;49.050;9.250;2023-08-30T09:18:15;6.40;;;5.90;;
5454;SDS011;2750;49.050;9.250;2023-08-30T09:23:17;6.35;;;5.75;;
5454;SDS011;2750;49.050;9.250;2023-08-30T09:28:20;6.00;;;5.60;;
5454;SDS011;2750;49.050;9.250;2023-08-30T09:33:23;5.47;;;5.00;;
5454;SDS011;2750;49.050;9.250;2023-08-30T09:38:30;6.32;;;5.72;;
5454;SDS011;2750;49.050;9.250;2023-08-30T09:43:32;5.53;;;5.03;;
5454;SDS011;2750;49.050;9.250;2023-08-30T09:48:35;4.80;;;4.40;;
5454;SDS011;2750;49.050;9.250;2023-08-30T09:53:40;5.10;;;4.70;;
5454;SDS011;2750;49.050;9.250;2023-08-30T09:58:44;4.72;;;4.18;;
5454;SDS011;2750;49.050;9.250;2023-08-30T10:03:48;5.82;;;4.70;;
5454;SDS011;2750;49.050;9.250;2023-08-30T10:08:51;4.07;;;3.78;;
5454;SDS011;2750;49.050;9.250;2023-08-30T10:13:53;5.85;;;5.25;;
5454;SDS011;2750;49.050;9.250;2023-08-30T10:18:59;5.10;;;4.60;;
5454;SDS011;2750;49.050;9.250;2023-08-30T10:24:05;5.10;;;4.68;;
5454;SDS011;2750;49.050;9.250;2023-08-30T10:29:10;5.47;;;4.97;;
5454;SDS011;2750;49.050;9.250;2023-08-30T10:34:15;5.63;;;4.00;;
5454;SDS011;2750;49.050;9.250;2023-08-30T10:39:18;5.35;;;4.50;;
5454;SDS011;2750;49.050;9.250;2023-08-30T10:44:20;4.07;;;3.70;;
5454;SDS011;2750;49.050;9.250;2023-08-30T10:49:24;4.18;;;3.70;;
5454;SDS011;2750;49.050;9.250;2023-08-30T10:54:36;3.90;;;3.58;;
5454;SDS011;2750;49.050;9.250;2023-08-30T10:59:38;4.38;;;3.63;;
5454;SDS011;2750;49.050;9.250;2023-08-30T11:04:41;4.00;;;3.70;;
5454;SDS011;2750;49.050;9.250;2023-08-30T11:09:43;3.20;;;2.90;;
5454;SDS011;2750;49.050;9.250;2023-08-30T11:14:45;3.72;;;3.03;;
5454;SDS011;2750;49.050;9.250;2023-08-30T11:19:49;4.38;;;3.60;;
5454;SDS011;2750;49.050;9.250;2023-08-30T11:24:52;3.35;;;3.15;;
5454;SDS011;2750;49.050;9.250;2023-08-30T11:29:53;3.58;;;3.28;;
5454;SDS011;2750;49.050;9.250;2023-08-30T11:35:01;4.50;;;4.13;;
5454;SDS011;2750;49.050;9.250;2023-08-30T11:40:07;4.10;;;3.70;;
5454;SDS011;2750;49.050;9.250;2023-08-30T11:45:13;5.78;;;3.95;;
5454;SDS011;2750;49.050;9.250;2023-08-30T11:50:16;4.30;;;3.97;;
5454;SDS011;2750;49.050;9.250;2023-08-30T11:55:19;4.05;;;3.65;;
5454;SDS011;2750;49.050;9.250;2023-08-30T12:00:22;3.40;;;3.10;;
5454;SDS011;2750;49.050;9.250;2023-08-30T12:05:25;4.80;;;3.58;;
5454;SDS011;2750;49.050;9.250;2023-08-30T12:10:28;4.90;;;3.78;;
5454;SDS011;2750;49.050;9.250;2023-08-30T12:15:30;4.55;;;3.90;;
5454;SDS011;2750;49.050;9.250;2023-08-30T12:20:35;4.25;;;3.88;;
5454;SDS011;2750;49.050;9.250;2023-08-30T12:25:37;4.10;;;3.65;;
5454;SDS011;2750;49.050;9.250;2023-08-30T12:30:38;4.10;;;3.80;;
5454;SDS011;2750;49.050;9.250;2023-08-30T12:35:41;3.80;;;3.50;;
5454;SDS011;2750;49.050;9.250;2023-08-30T12:40:43;3.60;;;3.40;;
5454;SDS011;2750;49.050;9.250;2023-08-30T12:45:46;4.00;;;3.53;;
5454;SDS011;2750;49.050;9.250;2023-08-30T12:50:49;3.58;;;3.20;;
5454;SDS011;2750;49.050;9.250;2023-08-30T12:55:51;3.72;;;3.42;;
5454;SDS011;2750;49.050;9.250;2023-08-30T13:00:53;3.20;;;3.00;;
5454;SDS011;2750;49.050;9.250;2023-08-30T13:05:56;4.43;;;3.85;;
5454;SDS011;2750;49.050;9.250;2023-08-30T13:10:59;4.43;;;2.90;;
5454;SDS011;2750;49.050;9.250;2023-08-30T13:16:00;2.90;;;2.70;;
5454;SDS011;2750;49.050;9.250;2023-08-30T13:21:03;3.50;;;3.25;;
5454;SDS011;2750;49.050;9.250;2023-08-30T13:26:05;3.22;;;2.70;;
5454;SDS011;2750;49.050;9.250;2023-08-30T13:31:06;3.75;;;3.20;;
5454;SDS011;2750;49.050;9.250;2023-08-30T13:36:09;3.42;;;2.70;;
5454;SDS011;2750;49.050;9.250;2023-08-30T13:41:11;3.50;;;3.20;;
5454;SDS011;2750;49.050;9.250;2023-08-30T13:46:12;3.13;;;2.90;;
5454;SDS011;2750;49.050;9.250;2023-08-30T13:51:20;3.45;;;2.97;;
5454;SDS011;2750;49.050;9.250;2023-08-30T13:56:23;3.00;;;2.80;;
5454;SDS011;2750;49.050;9.250;2023-08-30T14:01:25;4.03;;;2.90;;
5454;SDS011;2750;49.050;9.250;2023-08-30T14:06:28;4.40;;;2.95;;
5454;SDS011;2750;49.050;9.250;2023-08-30T14:11:29;3.17;;;2.88;;
5454;SDS011;2750;49.050;9.250;2023-08-30T14:16:31;3.40;;;3.10;;
5454;SDS011;2750;49.050;9.250;2023-08-30T14:21:34;2.65;;;2.45;;
5454;SDS011;2750;49.050;9.250;2023-08-30T14:26:35;3.33;;;2.60;;
5454;SDS011;2750;49.050;9.250;2023-08-30T14:31:37;3.00;;;2.70;;
5454;SDS011;2750;49.050;9.250;2023-08-30T14:36:40;3.05;;;2.85;;
5454;SDS011;2750;49.050;9.250;2023-08-30T14:41:43;3.50;;;3.20;;
5454;SDS011;2750;49.050;9.250;2023-08-30T14:46:44;3.60;;;3.30;;
5454;SDS011;2750;49.050;9.250;2023-08-30T14:51:47;4.32;;;3.72;;
5454;SDS011;2750;49.050;9.250;2023-08-30T14:56:48;3.60;;;3.30;;
5454;SDS011;2750;49.050;9.250;2023-08-30T15:01:50;3.33;;;3.03;;
5454;SDS011;2750;49.050;9.250;2023-08-30T15:06:53;3.40;;;3.10;;
5454;SDS011;2750;49.050;9.250;2023-08-30T15:11:54;3.30;;;3.00;;
5454;SDS011;2750;49.050;9.250;2023-08-30T15:16:58;3.55;;;3.25;;
5454;SDS011;2750;49.050;9.250;2023-08-30T15:22:01;3.15;;;2.95;;
5454;SDS011;2750;49.050;9.250;2023-08-30T15:27:03;3.60;;;3.30;;
5454;SDS011;2750;49.050;9.250;2023-08-30T15:32:05;3.28;;;2.95;;
5454;SDS011;2750;49.050;9.250;2023-08-30T15:37:08;2.70;;;2.47;;
5454;SDS011;2750;49.050;9.250;2023-08-30T15:42:12;3.10;;;2.90;;
5454;SDS011;2750;49.050;9.250;2023-08-30T15:47:14;3.10;;;2.75;;
5454;SDS011;2750;49.050;9.250;2023-08-30T15:52:16;3.15;;;2.60;;
5454;SDS011;2750;49.050;9.250;2023-08-30T15:57:18;2.63;;;2.42;;
5454;SDS011;2750;49.050;9.250;2023-08-30T16:02:20;2.72;;;2.53;;
5454;SDS011;2750;49.050;9.250;2023-08-30T16:07:22;2.90;;;2.63;;
5454;SDS011;2750;49.050;9.250;2023-08-30T16:12:24;3.15;;;2.70;;
5454;SDS011;2750;49.050;9.250;2023-08-30T16:17:25;3.63;;;2.65;;
5454;SDS011;2750;49.050;9.250;2023-08-30T16:22:28;3.05;;;2.75;;
5454;SDS011;2750;49.050;9.250;2023-08-30T16:27:31;2.65;;;2.45;;
5454;SDS011;2750;49.050;9.250;2023-08-30T16:32:33;4.07;;;3.03;;
5454;SDS011;2750;49.050;9.250;2023-08-30T16:37:36;2.95;;;2.75;;
5454;SDS011;2750;49.050;9.250;2023-08-30T16:42:37;3.63;;;3.33;;
5454;SDS011;2750;49.050;9.250;2023-08-30T16:47:39;4.55;;;3.25;;
5454;SDS011;2750;49.050;9.250;2023-08-30T16:52:42;3.28;;;2.97;;
5454;SDS011;2750;49.050;9.250;2023-08-30T16:57:43;4.83;;;3.63;;
5454;SDS011;2750;49.050;9.250;2023-08-30T17:02:45;4.07;;;3.20;;
5454;SDS011;2750;49.050;9.250;2023-08-30T17:07:51;6.53;;;3.83;;
5454;SDS011;2750;49.050;9.250;2023-08-30T17:12:53;3.70;;;3.40;;
5454;SDS011;2750;49.050;9.250;2023-08-30T17:17:57;4.03;;;3.33;;
5454;SDS011;2750;49.050;9.250;2023-08-30T17:23:00;4.83;;;3.17;;
5454;SDS011;2750;49.050;9.250;2023-08-30T17:28:02;5.37;;;3.47;;
5454;SDS011;2750;49.050;9.250;2023-08-30T17:33:04;3.80;;;3.50;;
5454;SDS011;2750;49.050;9.250;2023-08-30T17:38:07;4.13;;;3.70;;
5454;SDS011;2750;49.050;9.250;2023-08-30T17:43:10;3.70;;;3.40;;
5454;SDS011;2750;49.050;9.250;2023-08-30T17:48:12;3.53;;;3.23;;
5454;SDS011;2750;49.050;9.250;2023-08-30T17:53:17;5.00;;;3.67;;
5454;SDS011;2750;49.050;9.250;2023-08-30T17:58:19;4.23;;;3.83;;
5454;SDS011;2750;49.050;9.250;2023-08-30T18:03:21;4.80;;;3.90;;
5454;SDS011;2750;49.050;9.250;2023-08-30T18:08:24;3.73;;;3.43;;
5454;SDS011;2750;49.050;9.250;2023-08-30T18:13:25;5.37;;;3.93;;
5454;SDS011;2750;49.050;9.250;2023-08-30T18:18:27;4.43;;;4.00;;
5454;SDS011;2750;49.050;9.250;2023-08-30T18:23:30;4.83;;;4.07;;
5454;SDS011;2750;49.050;9.250;2023-08-30T18:28:31;4.30;;;4.00;;
5454;SDS011;2750;49.050;9.250;2023-08-30T18:33:33;5.37;;;4.10;;
5454;SDS011;2750;49.050;9.250;2023-08-30T18:38:36;4.97;;;4.57;;
5454;SDS011;2750;49.050;9.250;2023-08-30T18:43:38;4.70;;;3.97;;
5454;SDS011;2750;49.050;9.250;2023-08-30T18:48:42;4.93;;;3.87;;
5454;SDS011;2750;49.050;9.250;2023-08-30T18:53:45;4.47;;;4.07;;
5454;SDS011;2750;49.050;9.250;2023-08-30T18:58:47;4.10;;;3.70;;
5454;SDS011;2750;49.050;9.250;2023-08-30T19:03:48;4.43;;;4.03;;
5454;SDS011;2750;49.050;9.250;2023-08-30T19:08:51;6.73;;;4.20;;
5454;SDS011;2750;49.050;9.250;2023-08-30T19:13:53;4.70;;;4.30;;
5454;SDS011;2750;49.050;9.250;2023-08-30T19:18:55;4.53;;;4.13;;
5454;SDS011;2750;49.050;9.250;2023-08-30T19:23:57;5.43;;;4.47;;
5454;SDS011;2750;49.050;9.250;2023-08-30T19:28:59;5.27;;;4.77;;
5454;SDS011;2750;49.050;9.250;2023-08-30T19:34:01;5.10;;;4.10;;
5454;SDS011;2750;49.050;9.250;2023-08-30T19:39:04;3.50;;;3.20;;
5454;SDS011;2750;49.050;9.250;2023-08-30T19:44:07;3.90;;;3.50;;
5454;SDS011;2750;49.050;9.250;2023-08-30T19:49:09;3.50;;;2.90;;
5454;SDS011;2750;49.050;9.250;2023-08-30T19:54:12;3.50;;;3.13;;
5454;SDS011;2750;49.050;9.250;2023-08-30T19:59:13;3.83;;;2.80;;
5454;SDS011;2750;49.050;9.250;2023-08-30T20:04:15;4.87;;;2.73;;
5454;SDS011;2750;49.050;9.250;2023-08-30T20:09:18;3.80;;;3.13;;
5454;SDS011;2750;49.050;9.250;2023-08-30T20:14:20;3.60;;;3.30;;
5454;SDS011;2750;49.050;9.250;2023-08-30T20:19:21;4.60;;;3.53;;
5454;SDS011;2750;49.050;9.250;2023-08-30T20:24:24;4.60;;;4.07;;
5454;SDS011;2750;49.050;9.250;2023-08-30T20:29:26;3.70;;;3.20;;
5454;SDS011;2750;49.050;9.250;2023-08-30T20:34:27;4.17;;;3.10;;
5454;SDS011;2750;49.050;9.250;2023-08-30T20:39:31;3.63;;;2.80;;
5454;SDS011;2750;49.050;9.250;2023-08-30T20:44:33;3.53;;;3.17;;
5454;SDS011;2750;49.050;9.250;2023-08-30T20:49:34;3.20;;;2.90;;
5454;SDS011;2750;49.050;9.250;2023-08-30T20:54:37;3.50;;;3.13;;
5454;SDS011;2750;49.050;9.250;2023-08-30T20:59:39;3.80;;;2.73;;
5454;SDS011;2750;49.050;9.250;2023-08-30T21:04:41;3.13;;;2.67;;
5454;SDS011;2750;49.050;9.250;2023-08-30T21:09:44;2.73;;;2.53;;
5454;SDS011;2750;49.050;9.250;2023-08-30T21:14:45;2.93;;;2.63;;
5454;SDS011;2750;49.050;9.250;2023-08-30T21:19:47;3.63;;;2.53;;
5454;SDS011;2750;49.050;9.250;2023-08-30T21:24:50;3.27;;;2.97;;
5454;SDS011;2750;49.050;9.250;2023-08-30T21:29:51;3.23;;;2.77;;
5454;SDS011;2750;49.050;9.250;2023-08-30T21:34:53;2.73;;;2.43;;
5454;SDS011;2750;49.050;9.250;2023-08-30T21:39:56;3.13;;;2.83;;
5454;SDS011;2750;49.050;9.250;2023-08-30T21:44:57;2.73;;;2.30;;
5454;SDS011;2750;49.050;9.250;2023-08-30T21:49:59;3.83;;;2.73;;
5454;SDS011;2750;49.050;9.250;2023-08-30T21:55:02;4.60;;;3.30;;
5454;SDS011;2750;49.050;9.250;2023-08-30T22:00:08;3.47;;;3.17;;
5454;SDS011;2750;49.050;9.250;2023-08-30T22:05:12;4.40;;;3.07;;
5454;SDS011;2750;49.050;9.250;2023-08-30T22:10:16;3.00;;;2.70;;
5454;SDS011;2750;49.050;9.250;2023-08-30T22:15:17;3.47;;;3.17;;
5454;SDS011;2750;49.050;9.250;2023-08-30T22:20:19;4.33;;;3.17;;
5454;SDS011;2750;49.050;9.250;2023-08-30T22:25:22;3.23;;;2.80;;
5454;SDS011;2750;49.050;9.250;2023-08-30T22:30:24;3.80;;;2.83;;
5454;SDS011;2750;49.050;9.250;2023-08-30T22:35:26;3.70;;;2.90;;
5454;SDS011;2750;49.050;9.250;2023-08-30T22:40:29;5.27;;;2.87;;
5454;SDS011;2750;49.050;9.250;2023-08-30T22:45:31;4.80;;;3.27;;
5454;SDS011;2750;49.050;9.250;2023-08-30T22:50:32;10.37;;;3.93;;
5454;SDS011;2750;49.050;9.250;2023-08-30T22:55:36;5.37;;;3.80;;
5454;SDS011;2750;49.050;9.250;2023-08-30T23:00:37;5.47;;;3.30;;
5454;SDS011;2750;49.050;9.250;2023-08-30T23:05:39;4.27;;;3.40;;
5454;SDS011;2750;49.050;9.250;2023-08-30T23:10:42;6.17;;;4.00;;
5454;SDS011;2750;49.050;9.250;2023-08-30T23:15:44;4.30;;;3.90;;
5454;SDS011;2750;49.050;9.250;2023-08-30T23:20:46;4.83;;;4.10;;
5454;SDS011;2750;49.050;9.250;2023-08-30T23:25:48;4.83;;;4.37;;
5454;SDS011;2750;49.050;9.250;2023-08-30T23:30:50;5.57;;;4.80;;
5454;SDS011;2750;49.050;9.250;2023-08-30T23:35:51;7.70;;;4.43;;
5454;SDS011;2750;49.050;9.250;2023-08-30T23:40:54;5.63;;;4.50;;
5454;SDS011;2750;49.050;9.250;2023-08-30T23:45:56;5.50;;;4.17;;
5454;SDS011;2750;49.050;9.250;2023-08-30T23:50:57;4.60;;;4.20;;
5454;SDS011;2750;49.050;9.250;2023-08-30T23:56:00;6.87;;;4.33;;
